Terminal Aerodrome Forecast
Issued by NWS

Home | Current Version | Previous Version | Text Only | Print | Product List | Glossary On
Versions: 1 2 3 4 5 6 7 8 9 10 11 12 13 14 15 16 17 18 19 20 21 22 23
000
FTUS43 KAPX 301501 AAC
TAFPLN
TAF AMD
KPLN 301501Z 3015/0112 07010G16KT P6SM SCT017
     FM301800 07012G21KT P6SM SCT025 OVC050
     FM010300 08008KT P6SM VCSH BKN025 OVC040=

USA.gov is the U.S. government's official web portal to all federal, state and local government web resources and services.